createdAt,value
2018-02-13T05:50:01.432Z,0.1
2018-02-13T05:52:01.101Z,0.2
2018-02-13T05:53:01.132Z,0.3
2018-02-13T05:55:01.310Z,0.4
2018-02-13T05:56:01.101Z,0.5
2018-02-13T05:58:01.136Z,0.7
2018-02-13T05:59:01.068Z,0.8
2018-02-13T06:00:01.419Z,0.9
2018-02-13T06:01:01.101Z,1.1
2018-02-13T06:02:01.102Z,1.3
2018-02-13T06:03:01.136Z,1.6
2018-02-13T06:04:01.097Z,1.9
2018-02-13T06:05:01.310Z,2.3
2018-02-13T06:06:01.103Z,2.7
2018-02-13T06:07:01.110Z,3.1
2018-02-13T06:09:01.182Z,3.8
2018-02-13T06:10:01.329Z,4.6
2018-02-13T06:11:01.060Z,5.6
2018-02-13T06:12:01.091Z,6.8
2018-02-13T06:13:01.085Z,8.3
2018-02-13T06:14:01.084Z,9.9
2018-02-13T06:15:01.319Z,11.9
2018-02-13T06:16:01.084Z,14.3
2018-02-13T06:17:01.084Z,17.3
2018-02-13T06:18:01.087Z,21.1
2018-02-13T06:19:01.121Z,25.7
2018-02-13T06:20:01.317Z,31.3
2018-02-13T06:21:01.086Z,37.9
2018-02-13T06:22:01.092Z,45.8
2018-02-13T06:23:01.057Z,55.0
2018-02-13T06:24:01.087Z,65.3
2018-02-13T06:25:01.320Z,77.9
2018-02-13T06:26:01.058Z,92.1
2018-02-13T06:27:01.094Z,109.0
2018-02-13T06:28:01.120Z,127.8
2018-02-13T06:29:01.089Z,148.7
2018-02-13T06:30:01.295Z,173.0
2018-02-13T06:31:01.057Z,200.9
2018-02-13T06:32:01.092Z,231.5
2018-02-13T06:33:01.118Z,265.3
2018-02-13T06:34:01.091Z,302.9
2018-02-13T06:35:01.304Z,344.9
2018-02-13T06:36:01.099Z,390.9
2018-02-13T06:37:01.100Z,446.1
2018-02-13T06:38:01.126Z,508.0
2018-02-13T06:39:01.062Z,576.8
2018-02-13T06:40:01.301Z,650.5
2018-02-13T06:41:01.091Z,731.3
2018-02-13T06:42:01.091Z,820.2
2018-02-13T06:43:01.120Z,917.9
2018-02-13T06:44:01.095Z,1024.1
2018-02-13T06:45:01.302Z,1138.4
2018-02-13T06:46:01.095Z,1260.5
2018-02-13T06:47:01.091Z,1388.8
2018-02-13T06:48:01.117Z,1521.2
2018-02-13T06:49:01.061Z,1661.4
2018-02-13T06:50:01.325Z,1811.3
2018-02-13T06:51:01.094Z,1970.4
2018-02-13T06:52:01.096Z,2133.0
2018-02-13T06:53:01.117Z,2300.2
2018-02-13T06:54:01.090Z,2474.5
2018-02-13T06:55:01.298Z,2659.4
2018-02-13T06:56:01.096Z,2847.9
2018-02-13T06:57:01.092Z,3042.5
2018-02-13T06:58:01.143Z,3239.5
2018-02-13T06:59:01.094Z,3445.1
2018-02-13T07:00:01.301Z,3656.5
2018-02-13T07:01:01.097Z,3873.1
2018-02-13T07:02:01.095Z,4094.5
2018-02-13T07:03:01.141Z,4329.8
2018-02-13T07:04:01.093Z,4574.1
2018-02-13T07:05:01.316Z,4820.5
2018-02-13T07:06:01.070Z,5073.7
2018-02-13T07:07:01.099Z,5340.7
2018-02-13T07:08:01.127Z,5620.7
2018-02-13T07:09:01.099Z,5909.5
2018-02-13T07:10:01.304Z,6202.5
2018-02-13T07:11:01.097Z,6514.5
2018-02-13T07:12:01.100Z,6836.4
2018-02-13T07:13:01.137Z,7160.0
2018-02-13T07:14:01.108Z,7488.6
2018-02-13T07:15:01.306Z,7828.5
2018-02-13T07:16:01.073Z,8185.9
2018-02-13T07:17:01.102Z,8570.1
2018-02-13T07:18:01.136Z,8972.6
2018-02-13T07:19:01.107Z,9405.9
2018-02-13T07:21:01.288Z,9917.3
2018-02-13T07:22:01.085Z,10449.9
2018-02-13T07:23:01.054Z,11010.1
2018-02-13T07:24:01.108Z,11559.8
2018-02-13T07:25:01.083Z,12165.1
2018-02-13T07:26:01.294Z,12719.9
2018-02-13T07:27:01.089Z,13283.5
2018-02-13T07:28:01.112Z,13916.7
2018-02-13T07:29:01.090Z,14561.9
2018-02-13T07:30:01.062Z,15206.5
2018-02-13T07:31:01.302Z,15907.3
2018-02-13T07:32:01.061Z,16567.0
2018-02-13T07:33:01.127Z,17258.9
2018-02-13T07:34:01.090Z,18020.8
2018-02-13T07:35:01.095Z,18712.1
2018-02-13T07:36:01.323Z,19251.6
2018-02-13T07:37:01.089Z,19905.3
2018-02-13T07:38:01.118Z,20464.3
2018-02-13T07:39:01.065Z,20999.2
2018-02-13T07:40:01.097Z,21454.9
2018-02-13T07:41:01.302Z,21968.6
2018-02-13T07:42:01.093Z,22490.1
2018-02-13T07:43:01.119Z,22945.9
2018-02-13T07:44:01.095Z,23440.5
2018-02-13T07:45:01.060Z,24090.3
2018-02-13T07:46:01.304Z,24655.6
2018-02-13T07:47:01.093Z,25169.4
2018-02-13T07:48:01.125Z,25845.5
2018-02-13T07:49:01.097Z,26297.5
2018-02-13T07:50:01.119Z,26904.2
2018-02-13T07:51:01.301Z,27415.9
2018-02-13T07:52:01.094Z,28050.8
2018-02-13T07:53:01.125Z,28632.0
2018-02-13T07:54:01.094Z,29160.1
2018-02-13T07:55:01.069Z,29762.6
2018-02-13T07:56:01.312Z,30309.0
2018-02-13T07:57:01.094Z,30984.9
2018-02-13T07:58:01.133Z,31589.1
2018-02-13T07:59:01.096Z,32114.6
2018-02-13T08:00:01.067Z,32391.5
2018-02-13T08:01:01.300Z,32709.1
2018-02-13T08:02:01.095Z,33109.6
2018-02-13T08:03:01.169Z,33321.5
2018-02-13T08:04:01.072Z,33627.9
2018-02-13T08:05:01.098Z,33853.1
2018-02-13T08:06:01.341Z,34260.7
2018-02-13T08:07:01.103Z,34442.4
2018-02-13T08:08:01.120Z,34745.2
2018-02-13T08:09:01.100Z,35234.9
2018-02-13T08:10:01.072Z,35569.2
2018-02-13T08:11:01.348Z,36149.3
2018-02-13T08:12:01.095Z,36451.1
2018-02-13T08:13:01.099Z,36825.3
2018-02-13T08:14:01.095Z,37304.6
2018-02-13T08:15:01.106Z,37745.1
2018-02-13T08:16:01.423Z,38209.6
2018-02-13T08:17:01.073Z,38718.7
2018-02-13T08:18:01.099Z,39283.7
2018-02-13T08:19:01.102Z,39830.5
2018-02-13T08:20:01.103Z,40579.3
2018-02-13T08:21:01.334Z,41252.1
2018-02-13T08:22:01.102Z,41901.8
2018-02-13T08:23:01.106Z,42736.7
2018-02-13T08:24:01.127Z,43452.5
2018-02-13T08:25:01.102Z,44191.1
2018-02-13T08:26:01.311Z,44718.1
2018-02-13T08:27:01.072Z,45342.6
2018-02-13T08:28:01.101Z,45871.6
2018-02-13T08:29:01.141Z,46504.9
2018-02-13T08:31:01.295Z,47152.6
2018-02-13T08:32:01.051Z,47710.7
2018-02-13T08:33:01.110Z,48273.7
2018-02-13T08:34:01.056Z,48808.1
2018-02-13T08:35:01.088Z,49527.3
2018-02-13T08:36:01.327Z,49943.2
2018-02-13T08:37:01.088Z,50567.8
2018-02-13T08:38:01.123Z,51005.0
2018-02-13T08:39:01.087Z,51372.1
2018-02-13T08:40:01.089Z,52101.5
2018-02-13T08:41:01.302Z,52944.1
2018-02-13T08:42:01.085Z,54026.2
2018-02-13T08:43:01.124Z,55111.3
2018-02-13T08:44:01.063Z,56260.3
2018-02-13T08:45:01.065Z,57212.7
2018-02-13T08:46:01.305Z,58259.3
2018-02-13T08:47:01.093Z,59329.8
2018-02-13T08:48:01.114Z,60326.3
2018-02-13T08:49:01.060Z,61248.2
2018-02-13T08:50:01.094Z,62023.1
2018-02-13T08:51:01.295Z,62843.8
2018-02-13T08:52:01.092Z,63500.9
2018-02-13T08:53:01.125Z,64314.9
2018-02-13T08:54:01.073Z,64985.6
2018-02-13T08:55:01.110Z,65288.1
2018-02-13T08:56:01.303Z,65535.0
2018-02-13T09:00:01.193Z,65535.0
2018-02-13T09:15:01.426Z,65535.0
2018-02-13T09:30:01.193Z,65535.0
2018-02-13T09:45:01.111Z,65535.0
2018-02-13T10:00:01.403Z,65535.0
2018-02-13T10:15:01.400Z,65535.0
2018-02-13T10:30:01.190Z,65535.0
2018-02-13T10:45:01.115Z,65535.0
2018-02-13T11:00:06.474Z,65535.0
2018-02-13T11:15:01.099Z,65535.0
2018-02-13T11:30:01.246Z,65535.0
2018-02-13T11:45:01.127Z,65535.0
2018-02-13T12:00:01.234Z,65535.0
2018-02-13T12:15:02.372Z,65535.0
2018-02-13T12:30:02.415Z,65535.0
2018-02-13T12:45:01.458Z,65535.0
2018-02-13T13:00:02.201Z,65535.0
2018-02-13T13:15:01.127Z,65535.0
2018-02-13T13:30:01.123Z,65535.0
2018-02-13T13:45:01.504Z,65535.0
2018-02-13T14:00:01.429Z,65535.0
2018-02-13T14:15:06.416Z,65535.0
2018-02-13T14:30:01.384Z,65535.0
2018-02-13T14:45:01.091Z,65535.0
2018-02-13T14:51:01.113Z,64501.5
2018-02-13T14:52:01.354Z,62776.7
2018-02-13T14:53:01.066Z,60973.7
2018-02-13T14:54:01.089Z,59224.8
2018-02-13T14:55:01.096Z,57513.2
2018-02-13T14:56:01.097Z,55760.4
2018-02-13T14:57:01.331Z,53954.2
2018-02-13T14:58:01.108Z,52099.8
2018-02-13T14:59:01.090Z,50199.0
2018-02-13T15:00:01.096Z,48268.3
2018-02-13T15:01:01.094Z,46312.7
2018-02-13T15:02:01.334Z,44326.9
2018-02-13T15:03:01.101Z,42316.9
2018-02-13T15:04:01.098Z,40293.5
2018-02-13T15:05:01.093Z,38262.0
2018-02-13T15:06:01.092Z,37256.9
2018-02-13T15:07:01.334Z,36944.7
2018-02-13T15:08:01.094Z,36707.2
2018-02-13T15:09:01.091Z,36396.0
2018-02-13T15:10:01.100Z,36020.9
2018-02-13T15:11:01.155Z,35661.1
2018-02-13T15:12:01.347Z,35334.1
2018-02-13T15:13:01.093Z,35031.8
2018-02-13T15:14:01.102Z,34746.4
2018-02-13T15:15:01.103Z,34454.7
2018-02-13T15:16:01.062Z,34150.2
2018-02-13T15:17:01.334Z,33841.1
2018-02-13T15:18:01.095Z,33525.5
2018-02-13T15:19:01.063Z,33196.9
2018-02-13T15:20:01.144Z,32847.4
2018-02-13T15:21:01.094Z,32486.5
2018-02-13T15:22:01.324Z,32099.3
2018-02-13T15:23:01.093Z,31674.7
2018-02-13T15:24:01.100Z,31234.5
2018-02-13T15:25:01.093Z,30795.5
2018-02-13T15:26:01.125Z,30355.1
2018-02-13T15:27:01.305Z,29901.1
2018-02-13T15:28:01.065Z,29437.1
2018-02-13T15:29:01.065Z,28976.2
2018-02-13T15:30:01.099Z,28518.1
2018-02-13T15:31:01.130Z,28072.7
2018-02-13T15:32:01.304Z,27645.4
2018-02-13T15:33:01.134Z,27230.1
2018-02-13T15:34:01.066Z,26818.2
2018-02-13T15:35:01.097Z,26417.0
2018-02-13T15:36:01.129Z,26021.6
2018-02-13T15:37:01.308Z,25636.6
2018-02-13T15:38:01.104Z,25277.1
2018-02-13T15:39:01.099Z,24932.4
2018-02-13T15:40:01.065Z,24588.9
2018-02-13T15:41:01.130Z,24245.1
2018-02-13T15:42:01.368Z,23909.6
2018-02-13T15:43:01.097Z,23585.6
2018-02-13T15:44:01.101Z,23273.3
2018-02-13T15:45:01.103Z,22982.5
2018-02-13T15:46:01.141Z,22706.6
2018-02-13T15:48:01.084Z,22413.5
2018-02-13T15:49:01.082Z,22113.5
2018-02-13T15:50:01.056Z,21808.3
2018-02-13T15:51:01.089Z,21487.7
2018-02-13T15:52:01.353Z,21139.3
2018-02-13T15:53:01.085Z,20761.5
2018-02-13T15:54:01.088Z,20354.6
2018-02-13T15:55:01.119Z,19924.2
2018-02-13T15:56:01.055Z,19472.0
2018-02-13T15:57:01.329Z,19000.1
2018-02-13T15:58:01.090Z,18505.1
2018-02-13T15:59:01.090Z,17981.2
2018-02-13T16:00:01.056Z,17420.7
2018-02-13T16:01:01.093Z,16822.9
2018-02-13T16:02:01.330Z,16189.3
2018-02-13T16:03:01.055Z,15547.9
2018-02-13T16:04:01.057Z,14893.9
2018-02-13T16:05:01.060Z,14232.1
2018-02-13T16:06:01.090Z,13570.6
2018-02-13T16:07:01.341Z,12918.5
2018-02-13T16:08:01.092Z,12281.3
2018-02-13T16:09:01.092Z,11661.9
2018-02-13T16:10:01.143Z,11060.6
2018-02-13T16:11:01.060Z,10480.3
2018-02-13T16:12:01.319Z,9923.6
2018-02-13T16:13:01.089Z,9393.1
2018-02-13T16:14:01.059Z,8891.2
2018-02-13T16:15:01.119Z,8419.1
2018-02-13T16:16:01.116Z,7975.1
2018-02-13T16:17:01.293Z,7556.2
2018-02-13T16:18:01.093Z,7158.5
2018-02-13T16:19:01.091Z,6778.9
2018-02-13T16:20:01.063Z,6415.7
2018-02-13T16:21:01.121Z,6067.0
2018-02-13T16:22:01.295Z,5731.1
2018-02-13T16:23:01.098Z,5406.8
2018-02-13T16:24:01.128Z,5092.3
2018-02-13T16:25:01.097Z,4787.3
2018-02-13T16:26:01.093Z,4490.5
2018-02-13T16:27:01.298Z,4201.3
2018-02-13T16:28:01.094Z,3919.9
2018-02-13T16:29:01.164Z,3647.1
2018-02-13T16:30:01.090Z,3384.1
2018-02-13T16:31:01.096Z,3130.9
2018-02-13T16:32:02.322Z,2888.1
2018-02-13T16:33:01.066Z,2656.0
2018-02-13T16:34:01.181Z,2434.9
2018-02-13T16:35:01.071Z,2225.0
2018-02-13T16:36:01.067Z,2026.4
2018-02-13T16:37:01.309Z,1839.3
2018-02-13T16:38:01.102Z,1663.3
2018-02-13T16:39:01.143Z,1498.9
2018-02-13T16:40:01.098Z,1346.1
2018-02-13T16:41:01.102Z,1205.5
2018-02-13T16:42:01.308Z,1077.3
2018-02-13T16:43:01.103Z,960.8
2018-02-13T16:44:01.134Z,854.5
2018-02-13T16:46:01.091Z,755.1
2018-02-13T16:47:01.296Z,664.9
2018-02-13T16:48:01.116Z,583.4
2018-02-13T16:49:01.084Z,510.1
2018-02-13T16:50:01.053Z,444.5
2018-02-13T16:51:01.055Z,386.1
2018-02-13T16:52:02.344Z,334.4
2018-02-13T16:53:01.110Z,288.5
2018-02-13T16:54:01.057Z,248.1
2018-02-13T16:55:01.058Z,212.3
2018-02-13T16:56:01.089Z,180.9
2018-02-13T16:57:01.298Z,153.4
2018-02-13T16:58:01.126Z,129.4
2018-02-13T16:59:01.101Z,108.5
2018-02-13T17:00:01.091Z,90.3
2018-02-13T17:01:01.099Z,77.1
2018-02-13T17:02:01.292Z,65.7
2018-02-13T17:03:01.122Z,55.9
2018-02-13T17:04:01.093Z,47.6
2018-02-13T17:05:01.067Z,40.5
2018-02-13T17:06:01.093Z,34.4
2018-02-13T17:07:01.299Z,29.2
2018-02-13T17:08:01.125Z,24.8
2018-02-13T17:09:01.093Z,21.1
2018-02-13T17:10:01.061Z,17.9
2018-02-13T17:11:01.093Z,15.2
2018-02-13T17:12:01.304Z,12.9
2018-02-13T17:13:01.129Z,10.9
2018-02-13T17:14:01.065Z,9.3
2018-02-13T17:15:01.074Z,7.9
2018-02-13T17:16:01.093Z,6.7
2018-02-13T17:17:01.305Z,5.6
2018-02-13T17:18:01.131Z,4.7
2018-02-13T17:19:01.099Z,4.0
2018-02-13T17:20:01.094Z,3.4
2018-02-13T17:21:01.096Z,2.9
2018-02-13T17:22:01.296Z,2.5
2018-02-13T17:23:01.121Z,2.1
2018-02-13T17:24:01.094Z,1.8
2018-02-13T17:25:01.066Z,1.5
2018-02-13T17:26:01.099Z,1.3
2018-02-13T17:27:01.316Z,1.1
2018-02-13T17:28:01.101Z,0.9
2018-02-13T17:29:01.109Z,0.7
2018-02-13T17:30:01.124Z,0.6
2018-02-13T17:31:01.102Z,0.5
2018-02-13T17:32:01.308Z,0.4
2018-02-13T17:33:01.109Z,0.3
2018-02-13T17:36:06.097Z,0.2
2018-02-13T17:37:01.322Z,0.1
